KGOO

Nevada County Airport

Grass Valley, California, USA
METAR KGOO 211600Z AUTO 00000KT 10SM OVC011 00/00 A3008 RMK AO1 P0001
Observed Flight Rules
Jan-21 @ 16:00 UTC (22 minutes ago) Marginal Visual Flight Rules
Visibility Clouds
10 miles
  • Overcast at 1,100' AGL
Temperatures Readings Precipitation
Current 0°C / 32°F
Dewpoint 0°C / 32°F
Humidity 100%
Altimeter 30.08" Hg
Pressure 1018.62 hPa
Elevation 962
Current Rain 0.01
METAR KGOO 211600Z AUTO 00000KT 10SM OVC011 00/00 A3008 RMK AO1 P0001
Observed Flight Rules
Jan-21 @ 16:00 UTC
(22 minutes ago)
MVFR
Clouds
  • Overcast at 1,100' AGL
Temperature Dewpoint
0°C / 32°F 0°C / 32°F
Humidity Altimeter Pressure
100% 30.08" Hg 1018.62 hPa
Current Rain
0.01